Time;durP1;ratioP1;P1;durP2;ratioP2;P2;SDS_P1;SDS_P2;PMS_P1;PMS_P2;Temp;Humidity;BMP_temperature;BMP_pressure;BME280_temperature;BME280_humidity;BME280_pressure;Samples;Min_cycle;Max_cycle;Signal;HPM_P1;HPM_P2
2022/01/05 00:02:07;;;;;;;;;1.50;1.00;;;;;4.35;100.00;100407.88;5018508;28;45319;-83
2022/01/05 00:04:33;;;;;;;;;1.00;1.00;;;;;4.33;100.00;100412.34;5000834;28;44819;-82
2022/01/05 00:06:59;;;;;;;;;2.00;2.00;;;;;4.32;100.00;100418.53;5018846;28;45152;-84
2022/01/05 00:09:25;;;;;;;;;1.00;1.00;;;;;4.31;100.00;100427.34;5019746;28;44842;-84
2022/01/05 00:11:52;;;;;;;;;1.25;1.25;;;;;4.28;100.00;100424.84;5020004;28;45271;-84
2022/01/05 00:14:17;;;;;;;;;0.00;0.00;;;;;4.24;100.00;100441.69;5020336;28;45334;-83
2022/01/05 00:16:42;;;;;;;;;6.00;3.00;;;;;4.19;100.00;100404.22;5024092;28;45187;-84
2022/01/05 00:19:08;;;;;;;;;3.00;2.00;;;;;4.20;100.00;100434.00;5006351;28;44901;-84
2022/01/05 00:21:33;;;;;;;;;2.75;2.00;;;;;4.20;100.00;100429.59;5019404;28;45192;-85
2022/01/05 00:23:59;;;;;;;;;2.50;2.50;;;;;4.18;100.00;100412.19;5021531;28;44837;-84
2022/01/05 00:26:25;;;;;;;;;1.00;1.00;;;;;4.17;100.00;100435.00;5004368;28;45355;-84
2022/01/05 00:28:51;;;;;;;;;3.00;3.00;;;;;4.12;100.00;100452.78;5028117;28;44754;-84
2022/01/05 00:31:19;;;;;;;;;3.25;2.00;;;;;4.14;100.00;100429.88;5028358;28;45374;-82
2022/01/05 00:33:45;;;;;;;;;2.00;1.00;;;;;4.13;100.00;100433.44;5029349;28;44823;-82
2022/01/05 00:36:10;;;;;;;;;3.00;1.25;;;;;4.13;100.00;100444.81;5010547;28;44748;-83
2022/01/05 00:38:36;;;;;;;;;0.75;0.00;;;;;4.10;100.00;100437.03;5029470;28;44777;-83
2022/01/05 00:41:01;;;;;;;;;2.25;2.00;;;;;4.09;100.00;100439.75;5028036;28;45069;-83
2022/01/05 00:43:27;;;;;;;;;2.00;2.00;;;;;4.08;100.00;100448.56;5005341;28;44825;-82
2022/01/05 00:45:53;;;;;;;;;1.00;1.00;;;;;4.05;100.00;100443.44;5006362;28;45188;-81
2022/01/05 00:48:18;;;;;;;;;6.50;3.00;;;;;4.03;100.00;100446.13;5020964;28;45314;-82
2022/01/05 00:50:44;;;;;;;;;3.00;2.00;;;;;4.08;100.00;100448.56;5017785;28;45435;-81
2022/01/05 00:53:09;;;;;;;;;3.00;3.00;;;;;4.03;100.00;100461.91;5017646;28;44777;-81
2022/01/05 00:55:35;;;;;;;;;1.25;0.50;;;;;4.02;100.00;100462.84;5017930;28;44993;-80
2022/01/05 00:58:00;;;;;;;;;4.00;2.00;;;;;4.05;100.00;100462.69;4999729;28;45500;-81
2022/01/05 01:00:25;;;;;;;;;8.25;2.00;;;;;4.02;100.00;100464.63;5017256;28;45307;-80
2022/01/05 01:02:51;;;;;;;;;3.50;2.75;;;;;3.98;100.00;100468.28;5017709;28;44854;-81
2022/01/05 01:05:17;;;;;;;;;5.50;1.75;;;;;3.99;100.00;100470.84;5018021;28;45098;-81
2022/01/05 01:07:44;;;;;;;;;0.00;0.00;;;;;3.98;100.00;100481.44;4999835;28;44858;-80
2022/01/05 01:10:10;;;;;;;;;6.75;3.00;;;;;3.97;100.00;100483.22;5018531;28;45234;-80
2022/01/05 01:12:36;;;;;;;;;3.75;2.00;;;;;3.99;100.00;100486.63;5005518;28;45246;-81
2022/01/05 01:15:05;;;;;;;;;2.50;2.00;;;;;3.97;100.00;100483.22;5017525;28;45342;-81
2022/01/05 01:17:30;;;;;;;;;6.50;2.00;;;;;3.97;100.00;100487.63;4999721;28;44946;-82
2022/01/05 01:19:56;;;;;;;;;7.00;1.25;;;;;3.95;100.00;100492.06;5017170;28;45381;-80
2022/01/05 01:22:22;;;;;;;;;3.75;2.50;;;;;3.93;100.00;100489.53;5017174;28;44840;-79
2022/01/05 01:24:47;;;;;;;;;1.75;0.50;;;;;3.93;100.00;100491.28;5017424;28;45319;-81
2022/01/05 01:27:12;;;;;;;;;4.50;2.00;;;;;3.93;100.00;100500.03;5016706;28;44791;-80
2022/01/05 01:29:39;;;;;;;;;2.25;1.25;;;;;3.91;100.00;100509.72;5017031;28;45097;-80
2022/01/05 01:32:04;;;;;;;;;1.50;1.50;;;;;3.89;100.00;100511.59;5017030;28;45447;-80
2022/01/05 01:34:30;;;;;;;;;3.00;3.00;;;;;3.87;100.00;100502.94;5017595;28;44827;-81
2022/01/05 01:36:57;;;;;;;;;8.00;2.25;;;;;3.88;100.00;100509.88;5020947;28;44862;-81
2022/01/05 01:39:22;;;;;;;;;2.00;2.00;;;;;3.88;100.00;100517.78;5018503;28;45449;-82
2022/01/05 01:41:48;;;;;;;;;2.75;2.50;;;;;3.84;100.00;100531.94;5021904;28;44829;-82
2022/01/05 01:44:13;;;;;;;;;6.25;1.00;;;;;3.83;100.00;100517.13;5022076;28;44814;-80
2022/01/05 01:46:39;;;;;;;;;3.00;1.00;;;;;3.81;100.00;100540.81;5019370;28;44736;-79
2022/01/05 01:49:04;;;;;;;;;6.25;2.00;;;;;3.82;100.00;100539.91;5017890;28;45574;-79
2022/01/05 01:51:29;;;;;;;;;2.50;2.00;;;;;3.82;100.00;100546.91;5028423;28;44823;-80
2022/01/05 01:53:55;;;;;;;;;3.25;2.00;;;;;3.81;100.00;100551.31;5037719;28;44945;-80
2022/01/05 01:56:24;;;;;;;;;3.00;3.00;;;;;3.82;100.00;100549.53;5039170;28;45442;-80
2022/01/05 01:58:51;;;;;;;;;2.50;2.00;;;;;3.81;100.00;100550.47;5040297;28;45288;-80
2022/01/05 02:01:16;;;;;;;;;2.75;2.00;;;;;3.81;100.00;100550.47;5040413;28;44626;-81
2022/01/05 02:03:42;;;;;;;;;3.75;3.00;;;;;3.79;100.00;100561.06;5044084;28;44701;-81
2022/01/05 02:06:08;;;;;;;;;1.00;1.00;;;;;3.81;100.00;100561.81;5043513;28;44786;-80
2022/01/05 02:08:36;;;;;;;;;3.00;1.75;;;;;3.81;100.00;100569.69;5040994;28;45163;-82
2022/01/05 02:11:03;;;;;;;;;4.25;2.75;;;;;3.81;100.00;100574.97;5023021;28;44800;-83
2022/01/05 02:13:28;;;;;;;;;4.50;2.25;;;;;3.79;100.00;100582.06;5023461;28;44731;-82
2022/01/05 02:15:53;;;;;;;;;4.50;3.00;;;;;3.83;100.00;100585.44;5041169;28;44914;-83
2022/01/05 02:21:01;;;;;;;;;4.50;3.00;;;;;3.83;100.00;100585.44;5040765;28;45337;-84
2022/01/05 02:23:26;;;;;;;;;2.00;2.00;;;;;3.85;100.00;100591.47;5021956;28;44763;-83
2022/01/05 02:25:52;;;;;;;;;1.50;1.00;;;;;3.85;100.00;100592.31;5040298;28;44768;-82
2022/01/05 02:28:17;;;;;;;;;7.25;4.00;;;;;3.83;100.00;100595.94;5040856;28;44968;-83
2022/01/05 02:30:43;;;;;;;;;3.25;1.00;;;;;3.84;100.00;100598.50;5043796;28;45682;-80
2022/01/05 02:33:09;;;;;;;;;6.25;3.00;;;;;3.78;100.00;100598.75;5043946;28;44764;-81
2022/01/05 02:35:34;;;;;;;;;3.75;2.50;;;;;3.71;100.00;100597.28;5021687;28;45389;-80
2022/01/05 02:38:00;;;;;;;;;4.00;2.00;;;;;3.70;100.00;100595.56;5039864;28;45302;-80
2022/01/05 02:40:26;;;;;;;;;5.25;2.00;;;;;3.72;100.00;100598.97;5041041;28;45478;-79
2022/01/05 02:42:57;;;;;;;;;12.00;2.75;;;;;3.75;100.00;100595.38;5042651;28;44806;-82
2022/01/05 02:45:22;;;;;;;;;4.00;1.25;;;;;3.70;100.00;100597.34;5051652;28;44780;-83
2022/01/05 02:47:48;;;;;;;;;3.25;1.00;;;;;3.63;100.00;100599.38;5047614;28;45021;-82
2022/01/05 02:50:14;;;;;;;;;2.00;2.00;;;;;3.59;100.00;100603.91;5042947;28;45286;-81
2022/01/05 02:52:42;;;;;;;;;5.75;1.00;;;;;3.52;100.00;100599.78;5039428;28;44825;-80
2022/01/05 02:55:09;;;;;;;;;2.00;1.00;;;;;3.48;100.00;100602.59;5022478;28;45254;-81
2022/01/05 02:57:35;;;;;;;;;1.00;1.00;;;;;3.47;100.00;100604.38;5025761;28;46798;-80
2022/01/05 03:00:00;;;;;;;;;1.50;1.00;;;;;3.43;100.00;100612.44;5039700;28;44774;-80
2022/01/05 03:02:26;;;;;;;;;3.00;2.00;;;;;3.39;100.00;100614.34;5039808;28;44672;-79
2022/01/05 03:04:51;;;;;;;;;5.00;3.75;;;;;3.34;100.00;100614.53;5039600;28;44706;-80
2022/01/05 03:07:17;;;;;;;;;6.75;2.75;;;;;3.37;100.00;100617.94;5038612;28;45046;-80
2022/01/05 03:09:43;;;;;;;;;7.67;3.00;;;;;3.36;100.00;100622.34;5038785;28;44802;-79
2022/01/05 03:12:09;;;;;;;;;4.00;1.25;;;;;3.32;100.00;100624.22;5038794;28;44770;-79
2022/01/05 03:14:35;;;;;;;;;1.25;1.25;;;;;3.30;100.00;100636.56;5038333;28;45413;-80
2022/01/05 03:17:00;;;;;;;;;3.00;2.00;;;;;3.30;100.00;100640.97;5038501;28;45301;-82
2022/01/05 03:19:25;;;;;;;;;4.50;2.25;;;;;3.26;100.00;100637.59;5040403;28;45178;-83
2022/01/05 03:21:51;;;;;;;;;4.50;2.00;;;;;3.29;100.00;100644.50;5044052;28;44932;-83
2022/01/05 03:24:16;;;;;;;;;5.67;3.00;;;;;3.23;100.00;100639.47;5020233;28;44913;-82
2022/01/05 03:26:42;;;;;;;;;3.33;1.00;;;;;3.24;100.00;100646.41;5038143;28;45446;-82
2022/01/05 03:29:07;;;;;;;;;2.33;2.33;;;;;3.21;100.00;100643.94;5038511;28;44752;-83
2022/01/05 03:31:33;;;;;;;;;4.75;1.50;;;;;3.19;100.00;100649.25;5038493;28;44730;-82
2022/01/05 03:33:58;;;;;;;;;4.25;2.25;;;;;3.20;100.00;100658.81;5038701;28;44780;-83
2022/01/05 03:36:25;;;;;;;;;2.33;2.33;;;;;3.18;100.00;100663.25;5036971;28;45388;-80
2022/01/05 03:38:51;;;;;;;;;0.00;0.00;;;;;3.18;100.00;100665.03;5036838;28;45504;-80
2022/01/05 03:41:16;;;;;;;;;3.00;2.00;;;;;3.15;100.00;100670.41;5019988;28;44842;-80
2022/01/05 03:43:42;;;;;;;;;2.00;1.00;;;;;3.15;100.00;100673.91;5037938;28;45321;-79
2022/01/05 03:46:08;;;;;;;;;8.00;1.00;;;;;3.16;100.00;100680.00;5044102;28;45395;-80
2022/01/05 03:48:33;;;;;;;;;1.00;1.00;;;;;3.14;100.00;100687.91;5042938;28;44715;-81
2022/01/05 03:50:58;;;;;;;;;3.33;2.00;;;;;3.13;100.00;100688.81;5037857;28;45071;-80
2022/01/05 03:53:24;;;;;;;;;1.67;1.00;;;;;3.15;100.00;100687.03;5022025;28;44876;-80
2022/01/05 03:55:49;;;;;;;;;3.33;3.00;;;;;3.17;100.00;100689.56;5018539;28;45338;-79
2022/01/05 03:58:15;;;;;;;;;6.33;3.00;;;;;3.15;100.00;100694.88;5018229;28;45171;-79
2022/01/05 04:00:46;;;;;;;;;6.00;1.33;;;;;3.18;100.00;100697.38;5017827;28;44684;-80
2022/01/05 04:03:12;;;;;;;;;2.50;1.75;;;;;3.17;100.00;100695.69;4999324;28;44874;-80
2022/01/05 04:05:38;;;;;;;;;3.50;2.75;;;;;3.19;100.00;100699.13;5018589;28;44874;-81
2022/01/05 04:08:03;;;;;;;;;4.25;2.00;;;;;3.17;100.00;100700.94;5018595;28;45423;-79
2022/01/05 04:10:30;;;;;;;;;1.00;1.00;;;;;3.16;100.00;100703.63;5018394;28;44859;-79
2022/01/05 04:12:55;;;;;;;;;4.75;1.25;;;;;3.16;100.00;100717.59;5021593;28;44875;-80
2022/01/05 04:15:21;;;;;;;;;7.25;2.00;;;;;3.17;100.00;100707.94;5020971;28;46046;-80
2022/01/05 04:17:47;;;;;;;;;2.50;2.00;;;;;3.17;100.00;100713.19;5016721;28;45258;-80
2022/01/05 04:20:13;;;;;;;;;2.00;2.00;;;;;3.16;100.00;100708.88;5015908;28;44818;-81
2022/01/05 04:22:40;;;;;;;;;4.75;2.00;;;;;3.15;100.00;100720.28;5017333;28;44932;-80
2022/01/05 04:25:06;;;;;;;;;3.75;2.00;;;;;3.12;100.00;100716.00;5016995;28;46274;-81
2022/01/05 04:27:31;;;;;;;;;2.75;2.75;;;;;3.11;100.00;100726.56;5017304;28;45185;-81
2022/01/05 04:29:56;;;;;;;;;7.25;2.25;;;;;3.09;100.00;100716.09;4999057;28;44799;-80
2022/01/05 04:32:22;;;;;;;;;0.00;0.00;;;;;3.07;100.00;100724.03;5017583;28;44772;-81
2022/01/05 04:34:47;;;;;;;;;2.50;1.50;;;;;3.07;100.00;100731.03;5016614;28;45008;-81
2022/01/05 04:37:13;;;;;;;;;2.25;2.00;;;;;3.06;100.00;100729.34;5017205;28;44850;-81
2022/01/05 04:39:38;;;;;;;;;12.00;3.67;;;;;3.04;100.00;100718.03;5017373;28;44772;-80
2022/01/05 04:42:04;;;;;;;;;7.75;4.25;;;;;3.06;100.00;100730.19;5019958;28;44740;-81
2022/01/05 04:44:30;;;;;;;;;7.25;2.00;;;;;3.04;100.00;100729.38;5022917;28;45091;-81
2022/01/05 04:46:55;;;;;;;;;5.00;2.00;;;;;3.07;100.00;100744.16;5017168;28;44715;-82
2022/01/05 04:49:20;;;;;;;;;7.25;3.00;;;;;3.03;100.00;100746.03;5017532;28;45438;-83
2022/01/05 04:51:46;;;;;;;;;6.00;2.75;;;;;3.05;100.00;100744.22;5034686;28;44927;-83
2022/01/05 04:54:12;;;;;;;;;7.75;3.00;;;;;3.06;100.00;100742.47;5043437;28;45115;-82
2022/01/05 04:56:37;;;;;;;;;2.50;2.00;;;;;3.04;100.00;100754.75;5042967;28;44687;-83
2022/01/05 04:59:03;;;;;;;;;3.67;2.00;;;;;3.04;100.00;100750.38;5043448;28;45226;-83
2022/01/05 05:01:29;;;;;;;;;4.00;2.00;;;;;3.04;100.00;100754.75;5019186;28;45463;-81
2022/01/05 05:03:54;;;;;;;;;2.50;2.00;;;;;3.03;100.00;100755.69;5036391;28;45424;-83
2022/01/05 05:06:19;;;;;;;;;2.50;1.75;;;;;3.04;100.00;100762.63;5018828;28;45488;-83
2022/01/05 05:08:46;;;;;;;;;7.25;2.00;;;;;3.05;100.00;100748.63;5018956;28;45412;-82
2022/01/05 05:11:12;;;;;;;;;1.75;1.75;;;;;3.03;100.00;100758.31;5037338;28;45329;-82
2022/01/05 05:13:37;;;;;;;;;2.00;2.00;;;;;3.03;100.00;100760.94;5039809;28;45197;-82
2022/01/05 05:16:03;;;;;;;;;3.75;3.50;;;;;3.01;100.00;100770.63;5024401;28;45318;-83
2022/01/05 05:18:28;;;;;;;;;2.00;2.00;;;;;2.99;100.00;100773.28;5036991;28;45335;-82
2022/01/05 05:20:53;;;;;;;;;2.75;1.75;;;;;3.00;100.00;100777.66;5018748;28;45608;-82
2022/01/05 05:23:19;;;;;;;;;4.25;2.00;;;;;2.99;100.00;100769.81;5036511;28;45235;-83
2022/01/05 05:25:44;;;;;;;;;0.50;0.50;;;;;2.99;100.00;100781.16;5036786;28;45277;-82
2022/01/05 05:28:10;;;;;;;;;2.00;2.00;;;;;3.02;100.00;100785.47;5036825;28;45089;-83
2022/01/05 05:30:36;;;;;;;;;4.25;1.00;;;;;3.03;100.00;100792.41;5038848;28;44801;-82
2022/01/05 05:33:03;;;;;;;;;5.00;3.50;;;;;3.04;100.00;100791.50;5042859;28;45583;-83
2022/01/05 05:35:28;;;;;;;;;2.75;2.00;;;;;3.01;100.00;100783.75;5026293;28;44795;-83
2022/01/05 05:37:55;;;;;;;;;1.50;0.00;;;;;2.98;100.00;100795.19;5038175;28;44778;-84
2022/01/05 05:40:21;;;;;;;;;12.67;3.67;;;;;2.99;100.00;100793.44;5037386;28;45494;-84
2022/01/05 05:42:46;;;;;;;;;1.00;1.00;;;;;2.99;100.00;100796.91;5037046;28;45459;-82
2022/01/05 05:45:12;;;;;;;;;2.25;1.00;;;;;2.99;100.00;100798.69;5037071;28;45404;-82
2022/01/05 05:47:37;;;;;;;;;6.50;2.00;;;;;2.99;100.00;100807.41;5040660;28;44882;-83
2022/01/05 05:50:03;;;;;;;;;2.00;2.00;;;;;2.98;100.00;100807.47;5023514;28;44823;-82
2022/01/05 05:52:28;;;;;;;;;4.00;3.50;;;;;2.98;100.00;100821.44;5036550;28;44992;-83
2022/01/05 05:54:54;;;;;;;;;1.75;1.00;;;;;2.98;100.00;100818.81;5036633;28;45125;-83
2022/01/05 05:57:19;;;;;;;;;2.00;0.50;;;;;2.98;100.00;100812.72;5018593;28;45426;-81
2022/01/05 05:59:45;;;;;;;;;1.00;1.00;;;;;2.97;100.00;100811.88;5039776;28;45579;-82
2022/01/05 06:02:10;;;;;;;;;7.00;7.00;;;;;2.97;100.00;100821.50;5021369;28;46524;-81
2022/01/05 06:04:36;;;;;;;;;4.33;1.33;;;;;2.95;100.00;100832.06;5039051;28;45303;-81
2022/01/05 06:07:02;;;;;;;;;5.67;3.00;;;;;2.95;100.00;100828.56;5038207;28;44814;-80
2022/01/05 06:09:27;;;;;;;;;2.00;1.00;;;;;2.94;100.00;100824.22;5037515;28;44821;-81
2022/01/05 06:11:52;;;;;;;;;0.00;0.00;;;;;2.95;100.00;100818.94;5041102;28;45055;-80
2022/01/05 06:14:18;;;;;;;;;5.33;2.00;;;;;2.95;100.00;100823.31;5029159;28;45504;-80
2022/01/05 06:16:43;;;;;;;;;5.33;2.00;;;;;2.93;100.00;100833.88;5047367;28;45293;-81
2022/01/05 06:19:09;;;;;;;;;6.00;3.00;;;;;2.93;100.00;100836.50;5048239;28;44866;-81
2022/01/05 06:21:35;;;;;;;;;3.00;2.00;;;;;2.96;100.00;100846.03;5037171;28;45075;-82
2022/01/05 06:24:01;;;;;;;;;2.00;2.00;;;;;2.97;100.00;100840.72;5055256;28;44687;-83
2022/01/05 06:26:26;;;;;;;;;4.67;2.00;;;;;2.96;100.00;100841.66;5050541;28;44747;-84
2022/01/05 06:28:51;;;;;;;;;2.00;2.00;;;;;2.97;100.00;100840.72;5043890;28;44758;-83
2022/01/05 06:31:17;;;;;;;;;4.25;3.00;;;;;2.95;100.00;100845.19;5023649;28;45505;-83
2022/01/05 06:33:42;;;;;;;;;2.00;2.00;;;;;2.91;100.00;100845.34;5039530;28;45206;-84
2022/01/05 06:36:08;;;;;;;;;2.00;2.00;;;;;2.91;100.00;100855.84;5019028;28;45426;-84
2022/01/05 06:38:33;;;;;;;;;7.00;1.33;;;;;2.90;100.00;100851.47;5015499;28;44850;-83
2022/01/05 06:40:59;;;;;;;;;2.00;2.00;;;;;2.88;100.00;100864.66;5036350;28;45330;-84
2022/01/05 06:43:24;;;;;;;;;7.67;2.33;;;;;2.89;100.00;100863.72;5039965;28;44811;-83
2022/01/05 06:45:50;;;;;;;;;2.75;2.75;;;;;2.89;100.00;100870.75;5040917;28;46377;-84
2022/01/05 06:48:15;;;;;;;;;3.75;1.50;;;;;2.89;100.00;100871.59;5039870;28;45421;-80
2022/01/05 06:50:41;;;;;;;;;1.67;1.00;;;;;2.86;100.00;100871.72;5038452;28;45429;-82
2022/01/05 06:53:06;;;;;;;;;6.00;1.00;;;;;2.85;100.00;100877.84;5038973;28;44731;-81
2022/01/05 06:55:32;;;;;;;;;6.00;2.00;;;;;2.86;100.00;100881.38;5038884;28;45465;-82
2022/01/05 06:57:57;;;;;;;;;1.67;1.33;;;;;2.84;100.00;100884.88;5040041;28;45249;-82
2022/01/05 07:00:23;;;;;;;;;2.33;2.33;;;;;2.81;100.00;100892.84;5043083;28;45358;-80
2022/01/05 07:02:49;;;;;;;;;2.00;1.00;;;;;2.82;100.00;100901.59;5046567;28;44797;-81
2022/01/05 07:05:15;;;;;;;;;7.00;2.67;;;;;2.83;100.00;100891.03;5041328;28;44805;-80
2022/01/05 07:07:40;;;;;;;;;6.00;2.00;;;;;2.81;100.00;100900.72;5040465;28;44803;-81
2022/01/05 07:10:08;;;;;;;;;4.00;4.00;;;;;2.83;100.00;100901.53;5039083;28;45086;-81
2022/01/05 07:12:34;;;;;;;;;1.00;1.00;;;;;2.81;100.00;100894.63;5038465;28;44738;-82
2022/01/05 07:15:00;;;;;;;;;4.33;1.67;;;;;2.79;100.00;100897.28;5037952;28;44751;-82
2022/01/05 07:17:25;;;;;;;;;1.25;1.00;;;;;2.75;100.00;100905.28;5038725;28;45155;-84
2022/01/05 07:19:51;;;;;;;;;6.00;3.50;;;;;2.72;100.00;100903.66;5039326;28;45232;-83
2022/01/05 07:22:16;;;;;;;;;2.75;2.00;;;;;2.71;100.00;100911.56;5039120;28;44713;-84
2022/01/05 07:24:41;;;;;;;;;12.25;3.00;;;;;2.68;100.00;100909.03;5038934;28;44667;-85
2022/01/05 07:27:07;;;;;;;;;2.00;2.00;;;;;2.67;100.00;100923.06;5042476;28;44805;-84
2022/01/05 07:29:32;;;;;;;;;3.00;2.00;;;;;2.68;100.00;100923.00;5022014;28;45359;-84
2022/01/05 07:31:58;;;;;;;;;7.67;4.00;;;;;2.68;100.00;100936.13;5039378;28;45344;-84
2022/01/05 07:34:23;;;;;;;;;2.25;2.00;;;;;2.68;100.00;100936.13;5040219;28;44797;-84
2022/01/05 07:36:49;;;;;;;;;2.00;1.75;;;;;2.68;100.00;100932.66;5040317;28;45378;-84
2022/01/05 07:39:14;;;;;;;;;3.00;3.00;;;;;2.68;100.00;100938.75;5012420;28;47032;-84
2022/01/05 07:41:40;;;;;;;;;5.33;3.00;;;;;2.67;100.00;100934.41;5027694;28;44715;-83
2022/01/05 07:44:06;;;;;;;;;3.33;2.67;;;;;2.69;100.00;100947.47;5018432;28;44824;-85
2022/01/05 07:46:31;;;;;;;;;5.50;1.25;;;;;2.70;100.00;100954.41;5018532;28;45122;-83
2022/01/05 07:48:57;;;;;;;;;6.00;2.00;;;;;2.70;100.00;100949.19;5016983;28;45332;-83
2022/01/05 07:51:23;;;;;;;;;11.00;3.00;;;;;2.72;100.00;100961.34;5017449;28;44809;-84
2022/01/05 07:53:48;;;;;;;;;9.25;3.00;;;;;2.70;100.00;100954.41;4999086;28;44716;-84
2022/01/05 07:56:14;;;;;;;;;2.75;1.25;;;;;2.71;100.00;100957.03;5000287;28;45012;-84
2022/01/05 07:58:40;;;;;;;;;3.75;2.75;;;;;2.73;100.00;100962.22;5017976;28;45435;-84
2022/01/05 08:01:05;;;;;;;;;4.00;2.00;;;;;2.75;100.00;100960.38;5018281;28;44741;-83
2022/01/05 08:03:34;;;;;;;;;3.25;1.25;;;;;2.76;100.00;100952.50;5021607;28;44801;-83
2022/01/05 08:06:01;;;;;;;;;1.00;1.00;;;;;2.77;100.00;100969.94;5024060;28;44879;-84
2022/01/05 08:08:27;;;;;;;;;3.75;1.00;;;;;2.79;100.00;100973.34;5022812;28;45445;-85
2022/01/05 08:10:52;;;;;;;;;5.50;3.00;;;;;2.80;100.00;100980.34;5018794;28;45433;-83
2022/01/05 08:13:18;;;;;;;;;7.50;4.25;;;;;2.79;100.00;100981.22;5030523;28;44769;-85
2022/01/05 08:15:43;;;;;;;;;7.25;1.75;;;;;2.81;100.00;100976.81;5038325;28;45576;-83
2022/01/05 08:18:09;;;;;;;;;4.50;1.25;;;;;2.86;100.00;100981.91;5040497;28;45073;-85
2022/01/05 08:20:34;;;;;;;;;2.75;2.00;;;;;2.87;100.00;100988.03;5045417;28;45183;-84
2022/01/05 08:23:00;;;;;;;;;3.00;2.00;;;;;2.87;100.00;100994.13;5040649;28;44663;-83
2022/01/05 08:25:25;;;;;;;;;0.00;0.00;;;;;2.90;100.00;100998.41;5038009;28;44775;-84
2022/01/05 08:27:51;;;;;;;;;4.25;2.00;;;;;2.92;100.00;100996.59;5037265;28;45216;-85
2022/01/05 08:30:22;;;;;;;;;7.67;3.00;;;;;2.93;100.00;101000.94;5037766;28;45175;-84
2022/01/05 08:32:48;;;;;;;;;6.33;3.00;;;;;2.96;100.00;100999.09;5019590;28;44840;-82
2022/01/05 08:35:15;;;;;;;;;1.00;1.00;;;;;2.97;100.00;101000.78;5019463;28;44890;-81
2022/01/05 08:37:44;;;;;;;;;9.00;2.00;;;;;3.04;100.00;101007.56;5037122;28;45439;-82
2022/01/05 08:40:11;;;;;;;;;7.00;2.75;;;;;3.06;100.00;101013.63;5036801;28;44892;-82
2022/01/05 08:42:37;;;;;;;;;7.00;3.00;;;;;3.11;100.00;101010.88;5019672;28;45321;-83
2022/01/05 08:45:03;;;;;;;;;6.50;2.00;;;;;3.13;100.00;101003.78;5019796;28;44902;-84
2022/01/05 08:47:29;;;;;;;;;6.25;1.25;;;;;3.18;100.00;101008.88;5022046;28;45408;-81
2022/01/05 08:49:55;;;;;;;;;2.50;2.50;;;;;3.23;100.00;101010.47;5039840;28;44742;-82
2022/01/05 08:52:20;;;;;;;;;5.50;1.00;;;;;3.29;100.00;101017.31;5001672;28;44884;-83
2022/01/05 08:54:45;;;;;;;;;4.25;2.00;;;;;3.32;100.00;101019.81;5016981;28;45487;-82
2022/01/05 08:57:11;;;;;;;;;3.50;0.25;;;;;3.33;100.00;101018.88;5016700;28;45215;-82
2022/01/05 08:59:36;;;;;;;;;3.00;1.00;;;;;3.40;100.00;101022.19;4999444;28;45657;-81
2022/01/05 09:02:02;;;;;;;;;4.00;2.25;;;;;3.45;100.00;101015.03;5018001;28;44856;-81
2022/01/05 09:04:28;;;;;;;;;4.25;3.00;;;;;3.48;100.00;101023.66;5016589;28;44972;-80
2022/01/05 09:06:53;;;;;;;;;2.00;2.00;;;;;3.48;100.00;101026.28;5017714;28;44955;-82
2022/01/05 09:09:19;;;;;;;;;2.75;2.75;;;;;3.51;100.00;101014.81;5019518;28;44781;-81
2022/01/05 09:11:44;;;;;;;;;4.50;2.00;;;;;3.56;100.00;101026.88;5019844;28;44754;-83
2022/01/05 09:14:10;;;;;;;;;9.00;2.25;;;;;3.59;100.00;101023.31;5017631;28;45351;-81
2022/01/05 09:16:35;;;;;;;;;2.75;1.75;;;;;3.63;100.00;101024.94;5019220;28;45248;-81
2022/01/05 09:19:00;;;;;;;;;3.00;2.00;;;;;3.63;100.00;101038.06;4999994;28;44861;-83
2022/01/05 09:21:26;;;;;;;;;6.75;3.25;;;;;3.67;100.00;101031.75;5016531;28;45340;-81
2022/01/05 09:23:51;;;;;;;;;8.00;1.75;;;;;3.72;100.00;101029.84;5016759;28;44774;-82
2022/01/05 09:26:17;;;;;;;;;2.75;2.75;;;;;3.73;100.00;101028.09;5016110;28;45413;-82
2022/01/05 09:28:44;;;;;;;;;2.00;2.00;;;;;3.68;100.00;101041.38;5016476;28;44781;-82
2022/01/05 09:31:10;;;;;;;;;3.25;3.25;;;;;3.65;100.00;101036.22;4998688;28;45390;-82
2022/01/05 09:33:36;;;;;;;;;8.00;1.00;;;;;3.72;100.00;101042.97;4998503;28;45369;-82
2022/01/05 09:36:10;;;;;;;;;3.50;2.00;;;;;3.78;100.00;101057.69;5016679;28;45074;-83
2022/01/05 09:41:56;;;;;;;;;1.75;1.50;;;;;3.79;100.00;101056.78;5016153;28;45288;-82
2022/01/05 09:44:11;;;;;;;;;8.25;3.00;;;;;3.83;100.00;101069.78;5024972;28;44685;-83
2022/01/05 09:47:01;;;;;;;;;2.25;2.25;;;;;3.94;100.00;101068.53;5024142;28;45250;-85
2022/01/05 09:49:34;;;;;;;;;4.00;2.25;;;;;4.02;100.00;101075.25;5016538;28;44762;-85
2022/01/05 09:52:03;;;;;;;;;6.00;3.50;;;;;4.03;100.00;101078.75;5030899;28;44723;-85
2022/01/05 09:54:29;;;;;;;;;7.00;3.00;;;;;4.10;100.00;101085.50;5038826;28;45400;-85
2022/01/05 09:56:56;;;;;;;;;6.00;3.50;;;;;4.06;100.00;101099.66;5041358;28;45369;-85
2022/01/05 09:59:22;;;;;;;;;2.00;2.00;;;;;4.07;100.00;101097.00;5040402;28;44918;-83
2022/01/05 10:01:47;;;;;;;;;5.75;5.25;;;;;4.08;100.00;101105.72;5021149;28;44808;-84
2022/01/05 10:04:14;;;;;;;;;3.25;3.25;;;;;4.19;100.00;101111.47;5039459;28;44873;-83
2022/01/05 10:06:40;;;;;;;;;2.50;1.00;;;;;4.25;100.00;101108.63;5035934;28;45689;-85
2022/01/05 10:09:06;;;;;;;;;3.50;3.00;;;;;4.20;100.00;101102.66;5036293;28;44914;-85
2022/01/05 10:11:32;;;;;;;;;6.50;3.50;;;;;4.32;100.00;101109.28;5018680;28;45507;-85
2022/01/05 10:13:58;;;;;;;;;7.25;3.50;;;;;4.37;100.00;101108.22;5040844;28;44841;-84
2022/01/05 10:16:25;;;;;;;;;4.50;4.50;;;;;4.35;100.00;101103.91;5023491;28;46377;-83
2022/01/05 10:18:51;;;;;;;;;6.00;3.00;;;;;4.34;100.00;101095.16;5022530;28;44819;-85
2022/01/05 10:21:17;;;;;;;;;3.00;1.75;;;;;4.36;100.00;101095.97;5044316;28;45176;-84
2022/01/05 10:23:48;;;;;;;;;8.50;6.00;;;;;4.48;100.00;101112.22;5047851;28;45515;-84
2022/01/05 10:26:28;;;;;;;;;4.00;3.50;;;;;4.68;100.00;101120.25;5042481;28;45014;-86
2022/01/05 10:28:54;;;;;;;;;7.50;3.00;;;;;4.75;100.00;101105.97;5040806;28;44728;-85
2022/01/05 10:31:24;;;;;;;;;4.25;3.50;;;;;4.94;100.00;101114.03;5043929;28;44692;-84
2022/01/05 10:33:50;;;;;;;;;5.00;3.75;;;;;4.97;100.00;101124.44;5043993;28;44747;-86
2022/01/05 10:36:15;;;;;;;;;1.00;1.00;;;;;5.04;100.00;101119.81;5040201;28;45361;-84
2022/01/05 10:38:58;;;;;;;;;13.00;12.00;;;;;4.99;100.00;101124.41;5039701;28;45308;-84
2022/01/05 10:41:26;;;;;;;;;7.75;7.75;;;;;5.07;100.00;101124.94;5022502;28;45035;-84
2022/01/05 10:44:16;;;;;;;;;4.25;3.25;;;;;4.99;100.00;101124.41;5040338;28;44816;-85
2022/01/05 10:46:54;;;;;;;;;3.25;3.25;;;;;5.02;100.00;101124.28;5022077;28;45260;-84
2022/01/05 10:49:37;;;;;;;;;4.50;1.75;;;;;5.05;100.00;101125.03;5040561;28;44745;-84
2022/01/05 10:52:21;;;;;;;;;4.75;4.25;;;;;5.13;100.00;101127.38;5040062;28;45144;-85
2022/01/05 10:54:47;;;;;;;;;9.75;7.00;;;;;5.29;100.00;101133.75;5039368;28;44754;-85
2022/01/05 10:57:13;;;;;;;;;7.75;3.00;;;;;5.38;100.00;101133.41;5021443;28;45324;-84
2022/01/05 10:59:45;;;;;;;;;3.25;2.00;;;;;5.47;100.00;101131.34;5039612;28;45217;-85
2022/01/05 11:02:32;;;;;;;;;9.00;3.75;;;;;5.46;100.00;101129.59;5027659;28;44743;-85
2022/01/05 11:05:09;;;;;;;;;8.25;4.00;;;;;5.32;100.00;101132.78;5046306;28;44711;-85
2022/01/05 11:07:39;;;;;;;;;4.75;4.00;;;;;5.32;100.00;101127.53;5023293;28;47136;-85
2022/01/05 11:10:18;;;;;;;;;11.25;4.25;;;;;5.46;100.00;101130.44;5042907;28;44848;-85
2022/01/05 11:12:49;;;;;;;;;4.75;3.00;;;;;5.48;100.00;101131.28;5040833;28;44837;-85
2022/01/05 11:15:28;;;;;;;;;8.75;2.75;;;;;5.48;100.00;101128.63;5023472;28;45251;-85
2022/01/05 11:18:20;;;;;;;;;6.75;3.00;;;;;5.58;100.00;101132.63;5042543;28;45281;-85
2022/01/05 11:20:49;;;;;;;;;7.00;3.25;;;;;5.70;100.00;101133.03;5042399;28;44781;-84
2022/01/05 11:23:15;;;;;;;;;6.75;3.50;;;;;5.85;100.00;101130.66;5029044;28;44770;-85
2022/01/05 11:25:44;;;;;;;;;7.50;4.50;;;;;5.97;100.00;101139.00;5046328;28;44902;-85
2022/01/05 11:28:10;;;;;;;;;6.75;4.00;;;;;5.99;100.00;101134.50;5044239;28;45537;-85